Tuckers Crossing, Mississippi
Current Conditions -  °F | °C
As of 12:55 AM on Thursday 23 Oct 2014 (Local Time) from KPIB Reporting Station
Clear Clear  
Wind Chill: 54°   Ceiling: Unl
Heat Index: 54°   Visibility: 10mi
Dew Point: 43°   Wind: 5mph
Humidity: 67%   Direction: 20°NNE
Pressure: 30.12"   Gusts: NA
Location:  31.6875°N, 89.1116°W
Report Text: KPIB 230555Z AUTO 02004KT 10SM CLR 12/06 A3012 RMK AO1 10170 20110 57003
Loading
Personal Weather Stations






























Interactive Weather Map
Tropical Storm Tracking
New forecast layout! Learn more

10-Day Weather Forecast

Advertisements
Track Severe Weather on mobile